sensor_id;sensor_type;location;lat;lon;timestamp;P1;durP1;ratioP1;P2;durP2;ratioP2
44165;SDS011;30476;53.468;9.826;2023-06-05T00:02:00;3.20;;;2.90;;
44165;SDS011;30476;53.468;9.826;2023-06-05T00:04:26;3.63;;;2.77;;
44165;SDS011;30476;53.468;9.826;2023-06-05T00:06:53;5.10;;;3.50;;
44165;SDS011;30476;53.468;9.826;2023-06-05T00:09:19;3.27;;;2.97;;
44165;SDS011;30476;53.468;9.826;2023-06-05T00:11:45;4.13;;;3.17;;
44165;SDS011;30476;53.468;9.826;2023-06-05T00:14:11;5.20;;;3.17;;
44165;SDS011;30476;53.468;9.826;2023-06-05T00:16:37;3.77;;;3.47;;
44165;SDS011;30476;53.468;9.826;2023-06-05T00:19:03;3.57;;;2.67;;
44165;SDS011;30476;53.468;9.826;2023-06-05T00:21:29;3.33;;;2.90;;
44165;SDS011;30476;53.468;9.826;2023-06-05T00:23:55;3.43;;;3.20;;
44165;SDS011;30476;53.468;9.826;2023-06-05T00:26:21;5.57;;;2.57;;
44165;SDS011;30476;53.468;9.826;2023-06-05T00:28:47;3.47;;;3.17;;
44165;SDS011;30476;53.468;9.826;2023-06-05T00:31:12;4.03;;;3.00;;
44165;SDS011;30476;53.468;9.826;2023-06-05T00:33:39;3.33;;;3.13;;
44165;SDS011;30476;53.468;9.826;2023-06-05T00:36:05;3.00;;;2.80;;
44165;SDS011;30476;53.468;9.826;2023-06-05T00:38:32;3.60;;;3.30;;
44165;SDS011;30476;53.468;9.826;2023-06-05T00:40:58;4.07;;;3.63;;
44165;SDS011;30476;53.468;9.826;2023-06-05T00:43:24;3.50;;;3.20;;
44165;SDS011;30476;53.468;9.826;2023-06-05T00:45:50;3.67;;;3.30;;
44165;SDS011;30476;53.468;9.826;2023-06-05T00:48:22;3.23;;;3.00;;
44165;SDS011;30476;53.468;9.826;2023-06-05T00:50:47;5.70;;;2.90;;
44165;SDS011;30476;53.468;9.826;2023-06-05T00:53:14;4.50;;;3.60;;
44165;SDS011;30476;53.468;9.826;2023-06-05T00:55:40;2.77;;;2.57;;
44165;SDS011;30476;53.468;9.826;2023-06-05T00:58:06;4.10;;;3.20;;
44165;SDS011;30476;53.468;9.826;2023-06-05T01:00:32;3.60;;;2.80;;
44165;SDS011;30476;53.468;9.826;2023-06-05T01:02:59;2.97;;;2.77;;
44165;SDS011;30476;53.468;9.826;2023-06-05T01:05:26;4.37;;;3.43;;
44165;SDS011;30476;53.468;9.826;2023-06-05T01:07:54;3.17;;;2.90;;
44165;SDS011;30476;53.468;9.826;2023-06-05T01:10:20;3.33;;;3.13;;
44165;SDS011;30476;53.468;9.826;2023-06-05T01:12:47;3.03;;;2.73;;
44165;SDS011;30476;53.468;9.826;2023-06-05T01:15:24;3.07;;;2.83;;
44165;SDS011;30476;53.468;9.826;2023-06-05T01:17:56;4.97;;;3.07;;
44165;SDS011;30476;53.468;9.826;2023-06-05T01:20:33;4.23;;;3.70;;
44165;SDS011;30476;53.468;9.826;2023-06-05T01:23:01;4.13;;;3.83;;
44165;SDS011;30476;53.468;9.826;2023-06-05T01:25:31;3.77;;;3.47;;
44165;SDS011;30476;53.468;9.826;2023-06-05T01:27:59;3.70;;;3.50;;
44165;SDS011;30476;53.468;9.826;2023-06-05T01:30:40;6.70;;;3.40;;
44165;SDS011;30476;53.468;9.826;2023-06-05T01:33:33;3.80;;;3.37;;
44165;SDS011;30476;53.468;9.826;2023-06-05T01:36:11;4.50;;;3.90;;
44165;SDS011;30476;53.468;9.826;2023-06-05T01:38:39;4.40;;;4.10;;
44165;SDS011;30476;53.468;9.826;2023-06-05T01:41:06;4.13;;;3.73;;
44165;SDS011;30476;53.468;9.826;2023-06-05T01:43:33;3.57;;;3.30;;
44165;SDS011;30476;53.468;9.826;2023-06-05T01:46:00;5.87;;;5.27;;
44165;SDS011;30476;53.468;9.826;2023-06-05T01:48:26;4.67;;;4.40;;
44165;SDS011;30476;53.468;9.826;2023-06-05T01:50:59;4.50;;;4.10;;
44165;SDS011;30476;53.468;9.826;2023-06-05T01:53:26;4.10;;;3.80;;
44165;SDS011;30476;53.468;9.826;2023-06-05T01:55:53;5.10;;;3.70;;
44165;SDS011;30476;53.468;9.826;2023-06-05T01:58:22;4.10;;;3.70;;
44165;SDS011;30476;53.468;9.826;2023-06-05T02:00:48;4.53;;;4.00;;
44165;SDS011;30476;53.468;9.826;2023-06-05T02:03:14;5.07;;;4.57;;
44165;SDS011;30476;53.468;9.826;2023-06-05T02:05:41;4.80;;;4.40;;
44165;SDS011;30476;53.468;9.826;2023-06-05T02:08:07;4.60;;;4.10;;
44165;SDS011;30476;53.468;9.826;2023-06-05T02:10:34;5.37;;;4.43;;
44165;SDS011;30476;53.468;9.826;2023-06-05T02:13:00;6.00;;;3.83;;
44165;SDS011;30476;53.468;9.826;2023-06-05T02:15:26;5.80;;;3.37;;
44165;SDS011;30476;53.468;9.826;2023-06-05T02:17:54;4.90;;;4.40;;
44165;SDS011;30476;53.468;9.826;2023-06-05T02:20:22;4.37;;;3.93;;
44165;SDS011;30476;53.468;9.826;2023-06-05T02:22:49;4.20;;;3.90;;
44165;SDS011;30476;53.468;9.826;2023-06-05T02:25:20;4.20;;;3.77;;
44165;SDS011;30476;53.468;9.826;2023-06-05T02:27:47;4.40;;;4.00;;
44165;SDS011;30476;53.468;9.826;2023-06-05T02:30:13;4.33;;;4.03;;
44165;SDS011;30476;53.468;9.826;2023-06-05T02:32:38;5.13;;;4.63;;
44165;SDS011;30476;53.468;9.826;2023-06-05T02:35:09;4.57;;;3.93;;
44165;SDS011;30476;53.468;9.826;2023-06-05T02:37:35;6.13;;;4.30;;
44165;SDS011;30476;53.468;9.826;2023-06-05T02:40:11;4.63;;;3.60;;
44165;SDS011;30476;53.468;9.826;2023-06-05T02:42:38;4.63;;;3.90;;
44165;SDS011;30476;53.468;9.826;2023-06-05T02:45:04;4.20;;;3.90;;
44165;SDS011;30476;53.468;9.826;2023-06-05T02:47:31;6.53;;;3.53;;
44165;SDS011;30476;53.468;9.826;2023-06-05T02:50:00;4.53;;;4.10;;
44165;SDS011;30476;53.468;9.826;2023-06-05T02:52:26;4.50;;;4.10;;
44165;SDS011;30476;53.468;9.826;2023-06-05T02:54:53;4.80;;;3.60;;
44165;SDS011;30476;53.468;9.826;2023-06-05T02:57:19;4.30;;;3.70;;
44165;SDS011;30476;53.468;9.826;2023-06-05T02:59:45;7.43;;;4.10;;
44165;SDS011;30476;53.468;9.826;2023-06-05T03:02:11;3.77;;;3.57;;
44165;SDS011;30476;53.468;9.826;2023-06-05T03:04:37;4.53;;;4.10;;
44165;SDS011;30476;53.468;9.826;2023-06-05T03:07:08;5.40;;;4.90;;
44165;SDS011;30476;53.468;9.826;2023-06-05T03:09:35;5.10;;;4.30;;
44165;SDS011;30476;53.468;9.826;2023-06-05T03:12:01;5.43;;;4.47;;
44165;SDS011;30476;53.468;9.826;2023-06-05T03:14:27;5.97;;;4.17;;
44165;SDS011;30476;53.468;9.826;2023-06-05T03:16:53;4.57;;;3.83;;
44165;SDS011;30476;53.468;9.826;2023-06-05T03:19:21;3.63;;;3.33;;
44165;SDS011;30476;53.468;9.826;2023-06-05T03:21:47;4.50;;;4.20;;
44165;SDS011;30476;53.468;9.826;2023-06-05T03:24:15;3.37;;;3.13;;
44165;SDS011;30476;53.468;9.826;2023-06-05T03:26:41;4.37;;;3.40;;
44165;SDS011;30476;53.468;9.826;2023-06-05T03:29:08;4.80;;;4.00;;
44165;SDS011;30476;53.468;9.826;2023-06-05T03:31:35;3.97;;;3.67;;
44165;SDS011;30476;53.468;9.826;2023-06-05T03:34:01;3.97;;;3.53;;
44165;SDS011;30476;53.468;9.826;2023-06-05T03:36:29;3.47;;;3.13;;
44165;SDS011;30476;53.468;9.826;2023-06-05T03:38:56;4.00;;;3.60;;
44165;SDS011;30476;53.468;9.826;2023-06-05T03:41:22;3.33;;;3.13;;
44165;SDS011;30476;53.468;9.826;2023-06-05T03:43:48;4.40;;;4.00;;
44165;SDS011;30476;53.468;9.826;2023-06-05T03:46:17;4.30;;;3.90;;
44165;SDS011;30476;53.468;9.826;2023-06-05T03:48:47;5.73;;;4.57;;
44165;SDS011;30476;53.468;9.826;2023-06-05T03:51:24;4.57;;;4.03;;
44165;SDS011;30476;53.468;9.826;2023-06-05T03:53:55;3.90;;;3.50;;
44165;SDS011;30476;53.468;9.826;2023-06-05T03:56:23;3.40;;;3.10;;
44165;SDS011;30476;53.468;9.826;2023-06-05T03:58:53;5.07;;;4.70;;
44165;SDS011;30476;53.468;9.826;2023-06-05T04:01:20;4.60;;;2.90;;
44165;SDS011;30476;53.468;9.826;2023-06-05T04:03:46;3.83;;;3.53;;
44165;SDS011;30476;53.468;9.826;2023-06-05T04:06:11;5.57;;;4.10;;
44165;SDS011;30476;53.468;9.826;2023-06-05T04:08:37;3.50;;;3.20;;
44165;SDS011;30476;53.468;9.826;2023-06-05T04:11:03;6.10;;;3.87;;
44165;SDS011;30476;53.468;9.826;2023-06-05T04:13:29;4.00;;;3.60;;
44165;SDS011;30476;53.468;9.826;2023-06-05T04:15:55;5.60;;;3.90;;
44165;SDS011;30476;53.468;9.826;2023-06-05T04:18:20;6.50;;;5.83;;
44165;SDS011;30476;53.468;9.826;2023-06-05T04:20:47;5.87;;;5.27;;
44165;SDS011;30476;53.468;9.826;2023-06-05T04:23:13;5.60;;;4.27;;
44165;SDS011;30476;53.468;9.826;2023-06-05T04:25:39;7.23;;;4.53;;
44165;SDS011;30476;53.468;9.826;2023-06-05T04:28:11;5.10;;;4.60;;
44165;SDS011;30476;53.468;9.826;2023-06-05T04:30:37;5.57;;;4.27;;
44165;SDS011;30476;53.468;9.826;2023-06-05T04:33:03;4.97;;;4.57;;
44165;SDS011;30476;53.468;9.826;2023-06-05T04:35:31;6.47;;;4.87;;
44165;SDS011;30476;53.468;9.826;2023-06-05T04:37:58;5.50;;;4.90;;
44165;SDS011;30476;53.468;9.826;2023-06-05T04:40:24;6.80;;;5.50;;
44165;SDS011;30476;53.468;9.826;2023-06-05T04:42:50;8.40;;;5.23;;
44165;SDS011;30476;53.468;9.826;2023-06-05T04:45:19;7.53;;;6.07;;
44165;SDS011;30476;53.468;9.826;2023-06-05T04:47:44;4.53;;;4.10;;
44165;SDS011;30476;53.468;9.826;2023-06-05T04:50:20;6.67;;;5.43;;
44165;SDS011;30476;53.468;9.826;2023-06-05T04:52:47;7.37;;;5.33;;
44165;SDS011;30476;53.468;9.826;2023-06-05T04:55:13;6.17;;;5.23;;
44165;SDS011;30476;53.468;9.826;2023-06-05T04:57:39;7.73;;;5.33;;
44165;SDS011;30476;53.468;9.826;2023-06-05T05:00:05;11.47;;;6.90;;
44165;SDS011;30476;53.468;9.826;2023-06-05T05:02:32;8.10;;;5.97;;
44165;SDS011;30476;53.468;9.826;2023-06-05T05:04:58;8.30;;;5.90;;
44165;SDS011;30476;53.468;9.826;2023-06-05T05:07:24;6.40;;;5.57;;
44165;SDS011;30476;53.468;9.826;2023-06-05T05:09:51;7.70;;;6.90;;
44165;SDS011;30476;53.468;9.826;2023-06-05T05:12:17;7.87;;;6.57;;
44165;SDS011;30476;53.468;9.826;2023-06-05T05:14:43;6.17;;;4.93;;
44165;SDS011;30476;53.468;9.826;2023-06-05T05:17:10;8.80;;;6.90;;
44165;SDS011;30476;53.468;9.826;2023-06-05T05:19:36;8.97;;;6.33;;
44165;SDS011;30476;53.468;9.826;2023-06-05T05:22:06;10.30;;;6.73;;
44165;SDS011;30476;53.468;9.826;2023-06-05T05:24:32;8.40;;;5.80;;
44165;SDS011;30476;53.468;9.826;2023-06-05T05:26:57;10.07;;;6.40;;
44165;SDS011;30476;53.468;9.826;2023-06-05T05:29:23;8.13;;;6.67;;
44165;SDS011;30476;53.468;9.826;2023-06-05T05:31:49;7.40;;;5.80;;
44165;SDS011;30476;53.468;9.826;2023-06-05T05:34:16;10.10;;;7.80;;
44165;SDS011;30476;53.468;9.826;2023-06-05T05:36:42;8.10;;;6.73;;
44165;SDS011;30476;53.468;9.826;2023-06-05T05:39:08;8.17;;;5.70;;
44165;SDS011;30476;53.468;9.826;2023-06-05T05:41:34;10.90;;;7.00;;
44165;SDS011;30476;53.468;9.826;2023-06-05T05:44:00;9.20;;;5.97;;
44165;SDS011;30476;53.468;9.826;2023-06-05T05:46:26;10.97;;;6.63;;
44165;SDS011;30476;53.468;9.826;2023-06-05T05:48:52;12.20;;;6.50;;
44165;SDS011;30476;53.468;9.826;2023-06-05T05:51:19;11.17;;;6.77;;
44165;SDS011;30476;53.468;9.826;2023-06-05T05:53:46;11.53;;;6.93;;
44165;SDS011;30476;53.468;9.826;2023-06-05T05:56:12;8.73;;;7.03;;
44165;SDS011;30476;53.468;9.826;2023-06-05T05:58:37;7.80;;;6.77;;
44165;SDS011;30476;53.468;9.826;2023-06-05T06:01:03;9.00;;;6.50;;
44165;SDS011;30476;53.468;9.826;2023-06-05T06:03:29;11.27;;;6.37;;
44165;SDS011;30476;53.468;9.826;2023-06-05T06:05:55;10.20;;;7.20;;
44165;SDS011;30476;53.468;9.826;2023-06-05T06:08:22;9.40;;;6.20;;
44165;SDS011;30476;53.468;9.826;2023-06-05T06:10:48;9.97;;;6.40;;
44165;SDS011;30476;53.468;9.826;2023-06-05T06:13:14;9.13;;;6.77;;
44165;SDS011;30476;53.468;9.826;2023-06-05T06:15:39;9.63;;;6.60;;
44165;SDS011;30476;53.468;9.826;2023-06-05T06:18:05;10.37;;;7.10;;
44165;SDS011;30476;53.468;9.826;2023-06-05T06:20:31;10.50;;;7.47;;
44165;SDS011;30476;53.468;9.826;2023-06-05T06:22:58;11.37;;;7.67;;
44165;SDS011;30476;53.468;9.826;2023-06-05T06:25:25;8.57;;;6.20;;
44165;SDS011;30476;53.468;9.826;2023-06-05T06:27:54;8.77;;;7.50;;
44165;SDS011;30476;53.468;9.826;2023-06-05T06:30:20;8.10;;;6.03;;
44165;SDS011;30476;53.468;9.826;2023-06-05T06:32:47;8.93;;;7.43;;
44165;SDS011;30476;53.468;9.826;2023-06-05T06:35:13;9.43;;;6.70;;
44165;SDS011;30476;53.468;9.826;2023-06-05T06:37:39;9.23;;;6.97;;
44165;SDS011;30476;53.468;9.826;2023-06-05T06:40:06;12.93;;;6.30;;
44165;SDS011;30476;53.468;9.826;2023-06-05T06:42:36;9.73;;;7.53;;
44165;SDS011;30476;53.468;9.826;2023-06-05T06:45:03;8.50;;;6.60;;
44165;SDS011;30476;53.468;9.826;2023-06-05T06:47:29;7.07;;;5.33;;
44165;SDS011;30476;53.468;9.826;2023-06-05T06:49:55;6.43;;;5.70;;
44165;SDS011;30476;53.468;9.826;2023-06-05T06:52:22;8.77;;;6.00;;
44165;SDS011;30476;53.468;9.826;2023-06-05T06:54:49;10.53;;;7.60;;
44165;SDS011;30476;53.468;9.826;2023-06-05T06:57:15;10.03;;;6.97;;
44165;SDS011;30476;53.468;9.826;2023-06-05T06:59:41;7.80;;;6.50;;
44165;SDS011;30476;53.468;9.826;2023-06-05T07:02:19;7.73;;;6.17;;
44165;SDS011;30476;53.468;9.826;2023-06-05T07:04:48;10.13;;;7.43;;
44165;SDS011;30476;53.468;9.826;2023-06-05T07:07:15;7.00;;;6.23;;
44165;SDS011;30476;53.468;9.826;2023-06-05T07:09:42;9.10;;;7.00;;
44165;SDS011;30476;53.468;9.826;2023-06-05T07:12:09;6.70;;;5.67;;
44165;SDS011;30476;53.468;9.826;2023-06-05T07:14:37;5.80;;;5.30;;
44165;SDS011;30476;53.468;9.826;2023-06-05T07:17:03;12.23;;;5.93;;
44165;SDS011;30476;53.468;9.826;2023-06-05T07:19:30;10.83;;;6.20;;
44165;SDS011;30476;53.468;9.826;2023-06-05T07:21:56;6.27;;;5.67;;
44165;SDS011;30476;53.468;9.826;2023-06-05T07:24:24;9.90;;;6.80;;
44165;SDS011;30476;53.468;9.826;2023-06-05T07:26:50;12.27;;;6.93;;
44165;SDS011;30476;53.468;9.826;2023-06-05T07:29:20;6.97;;;5.93;;
44165;SDS011;30476;53.468;9.826;2023-06-05T07:31:49;7.90;;;6.77;;
44165;SDS011;30476;53.468;9.826;2023-06-05T07:34:17;8.20;;;6.90;;
44165;SDS011;30476;53.468;9.826;2023-06-05T07:36:44;6.23;;;5.47;;
44165;SDS011;30476;53.468;9.826;2023-06-05T07:39:11;7.87;;;5.37;;
44165;SDS011;30476;53.468;9.826;2023-06-05T07:41:40;8.00;;;5.80;;
44165;SDS011;30476;53.468;9.826;2023-06-05T07:44:10;5.23;;;4.77;;
44165;SDS011;30476;53.468;9.826;2023-06-05T07:46:41;8.37;;;6.07;;
44165;SDS011;30476;53.468;9.826;2023-06-05T07:49:07;9.50;;;5.00;;
44165;SDS011;30476;53.468;9.826;2023-06-05T07:51:34;6.70;;;6.10;;
44165;SDS011;30476;53.468;9.826;2023-06-05T07:54:02;5.37;;;4.87;;
44165;SDS011;30476;53.468;9.826;2023-06-05T07:56:29;12.77;;;6.00;;
44165;SDS011;30476;53.468;9.826;2023-06-05T07:58:56;7.40;;;4.50;;
44165;SDS011;30476;53.468;9.826;2023-06-05T08:01:22;6.17;;;5.33;;
44165;SDS011;30476;53.468;9.826;2023-06-05T08:03:48;5.37;;;4.70;;
44165;SDS011;30476;53.468;9.826;2023-06-05T08:06:14;6.87;;;5.00;;
44165;SDS011;30476;53.468;9.826;2023-06-05T08:08:40;8.30;;;5.13;;
44165;SDS011;30476;53.468;9.826;2023-06-05T08:11:08;6.57;;;5.87;;
44165;SDS011;30476;53.468;9.826;2023-06-05T08:13:34;9.60;;;5.60;;
44165;SDS011;30476;53.468;9.826;2023-06-05T08:16:01;6.80;;;6.20;;
44165;SDS011;30476;53.468;9.826;2023-06-05T08:18:27;6.93;;;5.30;;
44165;SDS011;30476;53.468;9.826;2023-06-05T08:20:53;8.40;;;5.50;;
44165;SDS011;30476;53.468;9.826;2023-06-05T08:23:19;8.90;;;5.23;;
44165;SDS011;30476;53.468;9.826;2023-06-05T08:25:45;5.33;;;4.77;;
44165;SDS011;30476;53.468;9.826;2023-06-05T08:28:14;9.60;;;6.40;;
44165;SDS011;30476;53.468;9.826;2023-06-05T08:30:41;6.37;;;4.40;;
44165;SDS011;30476;53.468;9.826;2023-06-05T08:33:07;11.30;;;6.13;;
44165;SDS011;30476;53.468;9.826;2023-06-05T08:35:32;6.60;;;4.90;;
44165;SDS011;30476;53.468;9.826;2023-06-05T08:37:58;9.43;;;4.93;;
44165;SDS011;30476;53.468;9.826;2023-06-05T08:40:27;5.13;;;4.30;;
44165;SDS011;30476;53.468;9.826;2023-06-05T08:42:54;8.67;;;4.43;;
44165;SDS011;30476;53.468;9.826;2023-06-05T08:45:21;5.33;;;3.77;;
44165;SDS011;30476;53.468;9.826;2023-06-05T08:47:49;10.83;;;4.17;;
44165;SDS011;30476;53.468;9.826;2023-06-05T08:50:16;5.10;;;3.70;;
44165;SDS011;30476;53.468;9.826;2023-06-05T08:52:42;4.47;;;3.93;;
44165;SDS011;30476;53.468;9.826;2023-06-05T08:55:10;5.33;;;3.20;;
44165;SDS011;30476;53.468;9.826;2023-06-05T08:57:40;8.57;;;4.03;;
44165;SDS011;30476;53.468;9.826;2023-06-05T09:00:07;3.90;;;3.47;;
44165;SDS011;30476;53.468;9.826;2023-06-05T09:02:40;3.43;;;3.13;;
44165;SDS011;30476;53.468;9.826;2023-06-05T09:05:09;5.40;;;3.80;;
44165;SDS011;30476;53.468;9.826;2023-06-05T09:07:37;4.87;;;3.90;;
44165;SDS011;30476;53.468;9.826;2023-06-05T09:10:03;4.57;;;3.27;;
44165;SDS011;30476;53.468;9.826;2023-06-05T09:12:30;3.90;;;3.60;;
44165;SDS011;30476;53.468;9.826;2023-06-05T09:14:55;4.97;;;3.47;;
44165;SDS011;30476;53.468;9.826;2023-06-05T09:17:21;3.60;;;3.30;;
44165;SDS011;30476;53.468;9.826;2023-06-05T09:19:48;3.53;;;3.23;;
44165;SDS011;30476;53.468;9.826;2023-06-05T09:22:14;3.83;;;3.53;;
44165;SDS011;30476;53.468;9.826;2023-06-05T09:24:41;3.90;;;3.20;;
44165;SDS011;30476;53.468;9.826;2023-06-05T09:27:08;6.43;;;4.47;;
44165;SDS011;30476;53.468;9.826;2023-06-05T09:29:36;5.13;;;3.00;;
44165;SDS011;30476;53.468;9.826;2023-06-05T09:32:15;6.93;;;6.23;;
44165;SDS011;30476;53.468;9.826;2023-06-05T09:34:43;3.70;;;3.23;;
44165;SDS011;30476;53.468;9.826;2023-06-05T09:37:12;8.80;;;4.63;;
44165;SDS011;30476;53.468;9.826;2023-06-05T09:39:39;3.20;;;2.40;;
44165;SDS011;30476;53.468;9.826;2023-06-05T09:42:08;4.83;;;2.93;;
44165;SDS011;30476;53.468;9.826;2023-06-05T09:44:34;9.27;;;3.73;;
44165;SDS011;30476;53.468;9.826;2023-06-05T09:47:05;5.17;;;3.33;;
44165;SDS011;30476;53.468;9.826;2023-06-05T09:52:06;4.20;;;3.20;;
44165;SDS011;30476;53.468;9.826;2023-06-05T09:54:34;5.83;;;5.27;;
44165;SDS011;30476;53.468;9.826;2023-06-05T09:57:03;6.17;;;5.57;;
44165;SDS011;30476;53.468;9.826;2023-06-05T09:59:31;10.03;;;9.20;;
44165;SDS011;30476;53.468;9.826;2023-06-05T10:02:02;4.90;;;2.77;;
44165;SDS011;30476;53.468;9.826;2023-06-05T10:04:32;9.03;;;8.30;;
44165;SDS011;30476;53.468;9.826;2023-06-05T10:07:19;6.30;;;3.63;;
44165;SDS011;30476;53.468;9.826;2023-06-05T10:09:46;4.00;;;3.60;;
44165;SDS011;30476;53.468;9.826;2023-06-05T10:12:15;6.23;;;5.63;;
44165;SDS011;30476;53.468;9.826;2023-06-05T10:14:41;14.53;;;13.23;;
44165;SDS011;30476;53.468;9.826;2023-06-05T10:17:09;5.40;;;4.90;;
44165;SDS011;30476;53.468;9.826;2023-06-05T10:19:37;2.97;;;2.67;;
44165;SDS011;30476;53.468;9.826;2023-06-05T10:22:06;3.93;;;2.47;;
44165;SDS011;30476;53.468;9.826;2023-06-05T10:24:35;4.13;;;1.80;;
44165;SDS011;30476;53.468;9.826;2023-06-05T10:27:10;5.33;;;2.20;;
44165;SDS011;30476;53.468;9.826;2023-06-05T10:35:45;7.07;;;1.83;;
44165;SDS011;30476;53.468;9.826;2023-06-05T10:38:16;1.90;;;1.80;;
44165;SDS011;30476;53.468;9.826;2023-06-05T10:40:54;5.43;;;2.70;;
44165;SDS011;30476;53.468;9.826;2023-06-05T10:43:25;2.90;;;2.00;;
44165;SDS011;30476;53.468;9.826;2023-06-05T10:45:51;2.40;;;1.83;;
44165;SDS011;30476;53.468;9.826;2023-06-05T10:48:17;2.97;;;2.33;;
44165;SDS011;30476;53.468;9.826;2023-06-05T10:50:43;2.70;;;2.13;;
44165;SDS011;30476;53.468;9.826;2023-06-05T10:56:07;5.83;;;5.33;;
44165;SDS011;30476;53.468;9.826;2023-06-05T10:58:33;3.10;;;2.80;;
44165;SDS011;30476;53.468;9.826;2023-06-05T11:01:41;4.57;;;4.17;;
44165;SDS011;30476;53.468;9.826;2023-06-05T11:03:57;2.00;;;1.90;;
44165;SDS011;30476;53.468;9.826;2023-06-05T11:06:24;2.60;;;2.40;;
44165;SDS011;30476;53.468;9.826;2023-06-05T11:09:07;3.80;;;3.50;;
44165;SDS011;30476;53.468;9.826;2023-06-05T11:11:55;6.90;;;6.17;;
44165;SDS011;30476;53.468;9.826;2023-06-05T11:14:22;2.60;;;1.97;;
44165;SDS011;30476;53.468;9.826;2023-06-05T11:16:49;3.73;;;1.80;;
44165;SDS011;30476;53.468;9.826;2023-06-05T11:24:35;12.90;;;11.80;;
44165;SDS011;30476;53.468;9.826;2023-06-05T11:27:02;6.37;;;4.67;;
44165;SDS011;30476;53.468;9.826;2023-06-05T11:29:32;8.00;;;2.33;;
44165;SDS011;30476;53.468;9.826;2023-06-05T11:31:58;1.80;;;1.70;;
44165;SDS011;30476;53.468;9.826;2023-06-05T11:34:25;2.27;;;2.17;;
44165;SDS011;30476;53.468;9.826;2023-06-05T11:36:53;6.10;;;1.87;;
44165;SDS011;30476;53.468;9.826;2023-06-05T11:39:19;3.83;;;1.93;;
44165;SDS011;30476;53.468;9.826;2023-06-05T11:41:45;4.63;;;2.13;;
44165;SDS011;30476;53.468;9.826;2023-06-05T11:44:12;5.73;;;2.60;;
44165;SDS011;30476;53.468;9.826;2023-06-05T11:46:39;2.40;;;2.27;;
44165;SDS011;30476;53.468;9.826;2023-06-05T11:49:06;2.10;;;1.90;;
44165;SDS011;30476;53.468;9.826;2023-06-05T11:51:47;2.40;;;2.20;;
44165;SDS011;30476;53.468;9.826;2023-06-05T11:54:22;4.13;;;2.00;;
44165;SDS011;30476;53.468;9.826;2023-06-05T11:56:58;2.43;;;2.07;;
44165;SDS011;30476;53.468;9.826;2023-06-05T11:59:33;3.93;;;2.37;;
44165;SDS011;30476;53.468;9.826;2023-06-05T12:01:59;2.93;;;1.80;;
44165;SDS011;30476;53.468;9.826;2023-06-05T12:04:25;2.17;;;2.07;;
44165;SDS011;30476;53.468;9.826;2023-06-05T12:06:51;3.57;;;2.67;;
44165;SDS011;30476;53.468;9.826;2023-06-05T12:09:18;2.37;;;1.80;;
44165;SDS011;30476;53.468;9.826;2023-06-05T12:11:44;2.43;;;2.23;;
44165;SDS011;30476;53.468;9.826;2023-06-05T12:14:11;2.40;;;2.20;;
44165;SDS011;30476;53.468;9.826;2023-06-05T12:16:41;2.40;;;2.20;;
44165;SDS011;30476;53.468;9.826;2023-06-05T12:19:10;1.70;;;1.60;;
44165;SDS011;30476;53.468;9.826;2023-06-05T12:21:45;2.43;;;2.10;;
44165;SDS011;30476;53.468;9.826;2023-06-05T12:24:12;4.10;;;2.17;;
44165;SDS011;30476;53.468;9.826;2023-06-05T12:26:48;2.83;;;1.90;;
44165;SDS011;30476;53.468;9.826;2023-06-05T12:29:18;2.40;;;1.87;;
44165;SDS011;30476;53.468;9.826;2023-06-05T12:31:45;2.90;;;2.40;;
44165;SDS011;30476;53.468;9.826;2023-06-05T12:34:11;2.13;;;1.90;;
44165;SDS011;30476;53.468;9.826;2023-06-05T12:36:38;2.50;;;1.93;;
44165;SDS011;30476;53.468;9.826;2023-06-05T12:39:05;2.20;;;2.00;;
44165;SDS011;30476;53.468;9.826;2023-06-05T12:41:32;2.23;;;1.80;;
44165;SDS011;30476;53.468;9.826;2023-06-05T12:44:01;2.30;;;1.90;;
44165;SDS011;30476;53.468;9.826;2023-06-05T12:46:31;2.17;;;1.90;;
44165;SDS011;30476;53.468;9.826;2023-06-05T12:48:57;2.20;;;1.73;;
44165;SDS011;30476;53.468;9.826;2023-06-05T12:51:24;2.10;;;1.90;;
44165;SDS011;30476;53.468;9.826;2023-06-05T12:53:52;4.13;;;2.60;;
44165;SDS011;30476;53.468;9.826;2023-06-05T12:56:19;2.13;;;1.80;;
44165;SDS011;30476;53.468;9.826;2023-06-05T12:58:56;2.43;;;1.90;;
44165;SDS011;30476;53.468;9.826;2023-06-05T13:01:23;2.63;;;2.40;;
44165;SDS011;30476;53.468;9.826;2023-06-05T13:03:50;4.10;;;2.37;;
44165;SDS011;30476;53.468;9.826;2023-06-05T13:06:16;4.90;;;2.20;;
44165;SDS011;30476;53.468;9.826;2023-06-05T13:08:43;2.00;;;1.73;;
44165;SDS011;30476;53.468;9.826;2023-06-05T13:11:09;2.53;;;2.33;;
44165;SDS011;30476;53.468;9.826;2023-06-05T13:13:35;2.03;;;1.77;;
44165;SDS011;30476;53.468;9.826;2023-06-05T13:16:02;2.03;;;1.90;;
44165;SDS011;30476;53.468;9.826;2023-06-05T13:18:30;3.57;;;2.03;;
44165;SDS011;30476;53.468;9.826;2023-06-05T13:20:56;2.47;;;1.57;;
44165;SDS011;30476;53.468;9.826;2023-06-05T13:23:22;3.90;;;2.07;;
44165;SDS011;30476;53.468;9.826;2023-06-05T13:25:48;2.93;;;2.47;;
44165;SDS011;30476;53.468;9.826;2023-06-05T13:28:13;2.60;;;2.20;;
44165;SDS011;30476;53.468;9.826;2023-06-05T13:30:39;4.43;;;1.80;;
44165;SDS011;30476;53.468;9.826;2023-06-05T13:33:05;2.57;;;2.37;;
44165;SDS011;30476;53.468;9.826;2023-06-05T13:35:31;1.90;;;1.80;;
44165;SDS011;30476;53.468;9.826;2023-06-05T13:37:56;2.00;;;1.60;;
44165;SDS011;30476;53.468;9.826;2023-06-05T13:40:22;3.83;;;2.27;;
44165;SDS011;30476;53.468;9.826;2023-06-05T13:42:48;2.20;;;1.90;;
44165;SDS011;30476;53.468;9.826;2023-06-05T13:45:16;2.50;;;2.10;;
44165;SDS011;30476;53.468;9.826;2023-06-05T13:47:42;2.17;;;2.00;;
44165;SDS011;30476;53.468;9.826;2023-06-05T13:50:08;3.87;;;1.80;;
44165;SDS011;30476;53.468;9.826;2023-06-05T13:52:34;2.50;;;1.63;;
44165;SDS011;30476;53.468;9.826;2023-06-05T13:55:00;2.07;;;1.97;;
44165;SDS011;30476;53.468;9.826;2023-06-05T13:57:26;2.00;;;1.80;;
44165;SDS011;30476;53.468;9.826;2023-06-05T13:59:52;1.90;;;1.70;;
44165;SDS011;30476;53.468;9.826;2023-06-05T14:02:18;1.73;;;1.63;;
44165;SDS011;30476;53.468;9.826;2023-06-05T14:04:43;1.70;;;1.60;;
44165;SDS011;30476;53.468;9.826;2023-06-05T14:07:09;3.87;;;2.10;;
44165;SDS011;30476;53.468;9.826;2023-06-05T14:09:35;2.20;;;1.93;;
44165;SDS011;30476;53.468;9.826;2023-06-05T14:12:01;2.03;;;1.93;;
44165;SDS011;30476;53.468;9.826;2023-06-05T14:14:28;2.30;;;2.10;;
44165;SDS011;30476;53.468;9.826;2023-06-05T14:16:55;1.93;;;1.83;;
44165;SDS011;30476;53.468;9.826;2023-06-05T14:19:20;3.67;;;3.33;;
44165;SDS011;30476;53.468;9.826;2023-06-05T14:21:46;2.23;;;1.93;;
44165;SDS011;30476;53.468;9.826;2023-06-05T14:24:12;1.90;;;1.80;;
44165;SDS011;30476;53.468;9.826;2023-06-05T14:26:39;1.93;;;1.83;;
44165;SDS011;30476;53.468;9.826;2023-06-05T14:29:05;2.27;;;2.10;;
44165;SDS011;30476;53.468;9.826;2023-06-05T14:31:31;1.90;;;1.80;;
44165;SDS011;30476;53.468;9.826;2023-06-05T14:33:57;2.83;;;2.53;;
44165;SDS011;30476;53.468;9.826;2023-06-05T14:36:22;2.33;;;1.70;;
44165;SDS011;30476;53.468;9.826;2023-06-05T14:38:48;1.80;;;1.70;;
44165;SDS011;30476;53.468;9.826;2023-06-05T14:41:14;2.50;;;2.20;;
44165;SDS011;30476;53.468;9.826;2023-06-05T14:43:40;2.50;;;2.20;;
44165;SDS011;30476;53.468;9.826;2023-06-05T14:46:06;1.90;;;1.80;;
44165;SDS011;30476;53.468;9.826;2023-06-05T14:48:31;3.73;;;2.20;;
44165;SDS011;30476;53.468;9.826;2023-06-05T14:50:57;2.00;;;1.73;;
44165;SDS011;30476;53.468;9.826;2023-06-05T14:53:23;3.50;;;2.40;;
44165;SDS011;30476;53.468;9.826;2023-06-05T14:55:50;3.10;;;2.23;;
44165;SDS011;30476;53.468;9.826;2023-06-05T14:58:15;2.07;;;1.97;;
44165;SDS011;30476;53.468;9.826;2023-06-05T15:00:41;2.23;;;2.13;;
44165;SDS011;30476;53.468;9.826;2023-06-05T15:03:07;2.10;;;1.90;;
44165;SDS011;30476;53.468;9.826;2023-06-05T15:05:33;3.00;;;2.30;;